Marco Polo — BR2031 — position and weather

sailwx.info

Track history (hours):
 
Tides and Currents Weather Stations Pressure Air Temp Water Temp Dewpoint Dewpoint Depression Visibility Wind Speed Wind Dir Waves Ship Positions

Marco Polo

Last reported at 2015-Jul-05 02:33 UTC. Time now 2015-Jul-05 02:43 UTC.
Position N 24°25' E 118°17'.

Length 32 m.

MMSI: 416000256.

Date/timePositionNaut miles runAvg speedWind from/ knotsBaromVisibWave heightAir tempDewpointWater temp
2015-Jul-05 02:33N 24°25' E 118°17'1 1.2
2015-Jul-05 01:32N 24°26' E 118°17'7 7.3
2015-Jul-05 00:33N 24°32' E 118°12'8 8.3
2015-Jul-04 23:33N 24°25' E 118°17'0 0.0
2015-Jul-04 22:34N 24°25' E 118°17'0 0.0
2015-Jul-04 21:34N 24°25' E 118°17'0 0.0
2015-Jul-04 20:33N 24°25' E 118°17'0 0.0
2015-Jul-04 19:33N 24°25' E 118°17'0 0.0
2015-Jul-04 18:33N 24°25' E 118°17'0 0.0
2015-Jul-04 17:32N 24°25' E 118°17'0 0.0
2015-Jul-04 16:33N 24°25' E 118°17'0 0.0
2015-Jul-04 15:32N 24°25' E 118°17'9 1.8
2015-Jul-04 10:33N 24°32' E 118°11'9 9.1
2015-Jul-04 09:33N 24°25' E 118°17'0 0.1
2015-Jul-04 08:33N 24°25' E 118°17'0 0.0
2015-Jul-04 07:33N 24°25' E 118°17'0 0.0
2015-Jul-04 06:30N 24°25' E 118°17'9 9.0
2015-Jul-04 05:32N 24°32' E 118°12'0 0.3
2015-Jul-04 04:33N 24°32' E 118°12'8 8.4
2015-Jul-04 03:33N 24°25' E 118°17'0 0.0
2015-Jul-04 02:33N 24°25' E 118°17'0 0.5
2015-Jul-04 01:33N 24°25' E 118°17'0 0.0
2015-Jul-04 00:33N 24°25' E 118°17'0 0.0
2015-Jul-03 23:31N 24°25' E 118°17'0 0.0
2015-Jul-03 22:33N 24°25' E 118°17'0 0.0
2015-Jul-03 21:33N 24°25' E 118°17'0 0.0
2015-Jul-03 20:32N 24°25' E 118°17'0 0.0
2015-Jul-03 19:33N 24°25' E 118°17'0 0.0
2015-Jul-03 18:33N 24°25' E 118°17'0 0.0
2015-Jul-03 17:33N 24°25' E 118°17'0 0.0
2015-Jul-03 16:31N 24°25' E 118°17'0 0.0
2015-Jul-03 15:33N 24°25' E 118°17'0 0.0
2015-Jul-03 14:33N 24°25' E 118°17'0 0.0
2015-Jul-03 10:33N 24°25' E 118°17'1 1.2
2015-Jul-03 09:33N 24°27' E 118°17'8 7.5
2015-Jul-03 08:32N 24°32' E 118°11'9 9.0
2015-Jul-03 07:34N 24°25' E 118°17'0 0.2
2015-Jul-03 06:29N 24°25' E 118°17'9 9.2
2015-Jul-03 05:31N 24°32' E 118°11'1 0.6
2015-Jul-03 04:33N 24°32' E 118°12'9 8.5
2015-Jul-03 03:32N 24°25' E 118°17'0 0.0
2015-Jul-03 02:32N 24°25' E 118°17'0 0.5
2015-Jul-03 01:32N 24°25' E 118°17'0 0.0
2015-Jul-03 00:33N 24°25' E 118°17'0 0.0
2015-Jul-02 23:33N 24°25' E 118°17'0 0.0
2015-Jul-02 22:33N 24°25' E 118°17'0 0.0
2015-Jul-02 21:33N 24°25' E 118°17'0 0.0
2015-Jul-02 20:33N 24°25' E 118°17'0 0.0
2015-Jul-02 19:32N 24°25' E 118°17'0 0.0
2015-Jul-02 18:33N 24°25' E 118°17'0 0.0
2015-Jul-02 17:33N 24°25' E 118°17'0 0.0
2015-Jul-02 16:33N 24°25' E 118°17'0 0.0
2015-Jul-02 15:33N 24°25' E 118°17'0 0.0
2015-Jul-02 14:33N 24°25' E 118°17'0 0.0
2015-Jul-02 10:33N 24°25' E 118°17'0 0.0
2015-Jul-02 09:33N 24°25' E 118°17'0 0.0
2015-Jul-02 08:33N 24°25' E 118°17'0 0.0
2015-Jul-02 07:31N 24°25' E 118°17'7 7.2
2015-Jul-02 06:32N 24°31' E 118°13'0 0.3
2015-Jul-02 05:33N 24°31' E 118°13'7 6.9
2015-Jul-02 04:30N 24°25' E 118°17'0 0.5
2015-Jul-02 03:30N 24°25' E 118°17'0 0.2
2015-Jul-02 02:33N 24°25' E 118°17'9 8.2
2015-Jul-02 01:31N 24°32' E 118°11'9 9.2
2015-Jul-02 00:32N 24°25' E 118°17'0 0.0
2015-Jul-01 23:32N 24°25' E 118°17'0 0.0
2015-Jul-01 22:33N 24°25' E 118°17'0 0.0
2015-Jul-01 21:33N 24°25' E 118°17'0 0.0
2015-Jul-01 20:33N 24°25' E 118°17'0 0.0
2015-Jul-01 19:33N 24°25' E 118°17'0 0.0
2015-Jul-01 18:33N 24°25' E 118°17'0 0.0
2015-Jul-01 16:26N 24°25' E 118°17'0 0.0
2015-Jul-01 15:25N 24°25' E 118°17'0 0.0
2015-Jul-01 14:26N 24°25' E 118°17'1 0.1
2015-Jul-01 10:33N 24°26' E 118°17'8 8.2
2015-Jul-01 09:32N 24°32' E 118°11'9 9.0
2015-Jul-01 08:32N 24°25' E 118°17'0 0.1
2015-Jul-01 07:27N 24°25' E 118°17'0 0.0
2015-Jul-01 06:32N 24°25' E 118°17'0 0.0
2015-Jul-01 05:33N 24°25' E 118°17'0 0.0
2015-Jul-01 04:32N 24°25' E 118°17'8 7.7
2015-Jul-01 03:33N 24°31' E 118°13'1 0.7
2015-Jul-01 02:33N 24°31' E 118°13'7 6.8
2015-Jul-01 01:32N 24°25' E 118°17'0 0.1
2015-Jul-01 00:29N 24°25' E 118°17'0 0.0
2015-Jun-30 23:32N 24°25' E 118°17'0 0.0
2015-Jun-30 22:30N 24°25' E 118°17'0 0.0
2015-Jun-30 21:33N 24°25' E 118°17'0 0.0
2015-Jun-30 20:33N 24°25' E 118°17'0 0.0
2015-Jun-30 19:33N 24°25' E 118°17'0 0.0
2015-Jun-30 18:33N 24°25' E 118°17'0 0.0
2015-Jun-30 17:32N 24°25' E 118°17'0 0.0
2015-Jun-30 16:32N 24°25' E 118°17'0 0.0
2015-Jun-30 15:33N 24°25' E 118°17'0 0.0
2015-Jun-30 14:33N 24°25' E 118°17'0 0.0
2015-Jun-30 10:32N 24°25' E 118°17'0 0.0
2015-Jun-30 09:33N 24°25' E 118°17'9 9.0
2015-Jun-30 08:33N 24°32' E 118°11'9 8.8
2015-Jun-30 07:33N 24°25' E 118°17'0 0.2
2015-Jun-30 06:33N 24°25' E 118°17'0 0.4
2015-Jun-30 05:29N 24°25' E 118°17'0 0.0
2015-Jun-30 04:33N 24°25' E 118°17'0 0.0
2015-Jun-30 03:29N 24°25' E 118°17'1 0.9
2015-Jun-30 02:31N 24°26' E 118°17'7 7.3
2015-Jun-30 01:33N 24°32' E 118°12'8 8.2
2015-Jun-30 00:33N 24°25' E 118°17'0 0.0
2015-Jun-29 23:31N 24°25' E 118°17'0 0.0
2015-Jun-29 22:30N 24°25' E 118°17'0 0.0
2015-Jun-29 21:30N 24°25' E 118°17'0 0.0
2015-Jun-29 20:32N 24°25' E 118°17'0 0.0
2015-Jun-29 19:27N 24°25' E 118°17'0 0.0
2015-Jun-29 18:21N 24°25' E 118°17'0 0.0
2015-Jun-29 17:29N 24°25' E 118°17'0 0.0
2015-Jun-29 16:33N 24°25' E 118°17'0 0.0
2015-Jun-29 15:33N 24°25' E 118°17'0 0.0
2015-Jun-29 14:31N 24°25' E 118°17'2 0.4
2015-Jun-29 10:32N 24°27' E 118°17'8 7.7
2015-Jun-29 09:32N 24°32' E 118°11'9 8.2
2015-Jun-29 08:26N 24°25' E 118°17'0 0.5
2015-Jun-29 07:33N 24°25' E 118°17'0 0.0
2015-Jun-29 06:27N 24°25' E 118°17'9 9.7
2015-Jun-29 05:33N 24°32' E 118°11'3 2.5
2015-Jun-29 04:32N 24°31' E 118°14'7 6.8
2015-Jun-29 03:33N 24°25' E 118°17'0 0.0
2015-Jun-29 02:33N 24°25' E 118°17'0 0.5
2015-Jun-29 01:33N 24°25' E 118°17'0 0.0
2015-Jun-29 00:32N 24°25' E 118°17'0 0.0
2015-Jun-28 23:25N 24°25' E 118°17'0 0.0
2015-Jun-28 21:12N 24°25' E 118°17'0 0.0
2015-Jun-28 20:31N 24°25' E 118°17'0 0.0
2015-Jun-28 19:27N 24°25' E 118°17'0 0.0
2015-Jun-28 16:14N 24°25' E 118°17'0 0.0
2015-Jun-28 14:31N 24°25' E 118°17'0 0.0
2015-Jun-28 10:32N 24°25' E 118°17'0 0.0
2015-Jun-28 08:16N 24°25' E 118°17'810.8
2015-Jun-28 07:32N 24°32' E 118°12'1 0.8
2015-Jun-28 06:34N 24°31' E 118°13'7 7.2
2015-Jun-28 05:33N 24°25' E 118°17'0 0.0
2015-Jun-28 04:29N 24°25' E 118°17'0 0.0
2015-Jun-28 03:32N 24°25' E 118°17'0 0.4
2015-Jun-28 02:33N 24°26' E 118°17'7 7.5
2015-Jun-28 01:34N 24°32' E 118°12'8 8.2
2015-Jun-28 00:33N 24°25' E 118°17'0 0.0
2015-Jun-27 23:33N 24°25' E 118°17'0 0.0
2015-Jun-27 22:31N 24°25' E 118°17'0 0.0
2015-Jun-27 21:28N 24°25' E 118°17'0 0.0
2015-Jun-27 20:33N 24°25' E 118°17'0 0.0
2015-Jun-27 19:33N 24°25' E 118°17'0 0.0
2015-Jun-27 18:29N 24°25' E 118°17'0 0.0
2015-Jun-27 17:33N 24°25' E 118°17'0 0.0
2015-Jun-27 16:29N 24°25' E 118°17'0 0.0
2015-Jun-27 14:31N 24°25' E 118°17'0 0.0
2015-Jun-27 10:33N 24°25' E 118°17'9 8.8
2015-Jun-27 09:32N 24°32' E 118°11'9 8.6
2015-Jun-27 08:30N 24°25' E 118°17'0 0.1
2015-Jun-27 07:32N 24°25' E 118°17'9 9.2
2015-Jun-27 06:34N 24°32' E 118°11'2 1.6
2015-Jun-27 05:32N 24°31' E 118°13'8 7.6
2015-Jun-27 04:32N 24°25' E 118°17'0 0.0
2015-Jun-27 01:33N 24°25' E 118°17'9 8.3
2015-Jun-27 00:31N 24°32' E 118°12'9 8.8
2015-Jun-26 23:33N 24°25' E 118°17'0 0.0
2015-Jun-26 22:32N 24°25' E 118°17'0 0.0
2015-Jun-26 21:33N 24°25' E 118°17'0 0.0
2015-Jun-26 20:33N 24°25' E 118°17'0 0.0
2015-Jun-26 14:30N 24°25' E 118°17'8 1.8
2015-Jun-26 10:03N 24°32' E 118°12'812.3
2015-Jun-26 09:23N 24°25' E 118°17'0 0.2
2015-Jun-26 07:13N 24°25' E 118°17'810.9
2015-Jun-26 06:31N 24°32' E 118°13'1 0.7
2015-Jun-26 05:32N 24°31' E 118°13'7 7.2
2015-Jun-26 04:32N 24°25' E 118°17'8 8.4
2015-Jun-26 03:33N 24°32' E 118°12'2 1.7
2015-Jun-26 02:33N 24°31' E 118°14'7 6.8
2015-Jun-26 01:33N 24°25' E 118°17'0 0.1
2015-Jun-26 00:32N 24°25' E 118°17'0 0.0
2015-Jun-25 23:33N 24°25' E 118°17'0 0.0
2015-Jun-25 22:33N 24°25' E 118°17'0 0.0
2015-Jun-25 21:33N 24°25' E 118°17'0 0.0
2015-Jun-25 20:33N 24°25' E 118°17'0 0.0
2015-Jun-25 19:33N 24°25' E 118°17'0 0.0
2015-Jun-25 18:19N 24°25' E 118°17'0 0.0
2015-Jun-25 17:19N 24°25' E 118°17'0 0.0
2015-Jun-25 10:33N 24°25' E 118°17'1 1.3
2015-Jun-25 09:29N 24°26' E 118°17'8 8.5
2015-Jun-25 08:33N 24°32' E 118°11'9 8.6
2015-Jun-25 07:30N 24°25' E 118°17'0 0.3
2015-Jun-25 06:17N 24°25' E 118°17'7 9.5
2015-Jun-25 05:33N 24°31' E 118°13'0 0.1
2015-Jun-25 04:33N 24°31' E 118°13'7 7.4
2015-Jun-25 03:33N 24°25' E 118°17'  
Track history (hours):
 
Tides and Currents Weather Stations Pressure Air Temp Water Temp Dewpoint Dewpoint Depression Visibility Wind Speed Wind Dir Waves Ship Positions

Marco Polo

Last reported at 2015-Jul-05 02:33 UTC. Time now 2015-Jul-05 02:43 UTC.
Position N 24°25' E 118°17'.

Length 32 m.

MMSI: 416000256.

Date/timePositionNaut miles runAvg speedWind from/ knotsBaromVisibWave heightAir tempDewpointWater temp
2015-Jul-05 02:33N 24°25' E 118°17'1 1.2
2015-Jul-05 01:32N 24°26' E 118°17'7 7.3
2015-Jul-05 00:33N 24°32' E 118°12'8 8.3
2015-Jul-04 23:33N 24°25' E 118°17'0 0.0
2015-Jul-04 22:34N 24°25' E 118°17'0 0.0
2015-Jul-04 21:34N 24°25' E 118°17'0 0.0
2015-Jul-04 20:33N 24°25' E 118°17'0 0.0
2015-Jul-04 19:33N 24°25' E 118°17'0 0.0
2015-Jul-04 18:33N 24°25' E 118°17'0 0.0
2015-Jul-04 17:32N 24°25' E 118°17'0 0.0
2015-Jul-04 16:33N 24°25' E 118°17'0 0.0
2015-Jul-04 15:32N 24°25' E 118°17'9 1.8
2015-Jul-04 10:33N 24°32' E 118°11'9 9.1
2015-Jul-04 09:33N 24°25' E 118°17'0 0.1
2015-Jul-04 08:33N 24°25' E 118°17'0 0.0
2015-Jul-04 07:33N 24°25' E 118°17'0 0.0
2015-Jul-04 06:30N 24°25' E 118°17'9 9.0
2015-Jul-04 05:32N 24°32' E 118°12'0 0.3
2015-Jul-04 04:33N 24°32' E 118°12'8 8.4
2015-Jul-04 03:33N 24°25' E 118°17'0 0.0
2015-Jul-04 02:33N 24°25' E 118°17'0 0.5
2015-Jul-04 01:33N 24°25' E 118°17'0 0.0
2015-Jul-04 00:33N 24°25' E 118°17'0 0.0
2015-Jul-03 23:31N 24°25' E 118°17'0 0.0
2015-Jul-03 22:33N 24°25' E 118°17'0 0.0
2015-Jul-03 21:33N 24°25' E 118°17'0 0.0
2015-Jul-03 20:32N 24°25' E 118°17'0 0.0
2015-Jul-03 19:33N 24°25' E 118°17'0 0.0
2015-Jul-03 18:33N 24°25' E 118°17'0 0.0
2015-Jul-03 17:33N 24°25' E 118°17'0 0.0
2015-Jul-03 16:31N 24°25' E 118°17'0 0.0
2015-Jul-03 15:33N 24°25' E 118°17'0 0.0
2015-Jul-03 14:33N 24°25' E 118°17'0 0.0
2015-Jul-03 10:33N 24°25' E 118°17'1 1.2
2015-Jul-03 09:33N 24°27' E 118°17'8 7.5
2015-Jul-03 08:32N 24°32' E 118°11'9 9.0
2015-Jul-03 07:34N 24°25' E 118°17'0 0.2
2015-Jul-03 06:29N 24°25' E 118°17'9 9.2
2015-Jul-03 05:31N 24°32' E 118°11'1 0.6
2015-Jul-03 04:33N 24°32' E 118°12'9 8.5
2015-Jul-03 03:32N 24°25' E 118°17'0 0.0
2015-Jul-03 02:32N 24°25' E 118°17'0 0.5
2015-Jul-03 01:32N 24°25' E 118°17'0 0.0
2015-Jul-03 00:33N 24°25' E 118°17'0 0.0
2015-Jul-02 23:33N 24°25' E 118°17'0 0.0
2015-Jul-02 22:33N 24°25' E 118°17'0 0.0
2015-Jul-02 21:33N 24°25' E 118°17'0 0.0
2015-Jul-02 20:33N 24°25' E 118°17'0 0.0
2015-Jul-02 19:32N 24°25' E 118°17'0 0.0
2015-Jul-02 18:33N 24°25' E 118°17'0 0.0
2015-Jul-02 17:33N 24°25' E 118°17'0 0.0
2015-Jul-02 16:33N 24°25' E 118°17'0 0.0
2015-Jul-02 15:33N 24°25' E 118°17'0 0.0
2015-Jul-02 14:33N 24°25' E 118°17'0 0.0
2015-Jul-02 10:33N 24°25' E 118°17'0 0.0
2015-Jul-02 09:33N 24°25' E 118°17'0 0.0
2015-Jul-02 08:33N 24°25' E 118°17'0 0.0
2015-Jul-02 07:31N 24°25' E 118°17'7 7.2
2015-Jul-02 06:32N 24°31' E 118°13'0 0.3
2015-Jul-02 05:33N 24°31' E 118°13'7 6.9
2015-Jul-02 04:30N 24°25' E 118°17'0 0.5
2015-Jul-02 03:30N 24°25' E 118°17'0 0.2
2015-Jul-02 02:33N 24°25' E 118°17'9 8.2
2015-Jul-02 01:31N 24°32' E 118°11'9 9.2
2015-Jul-02 00:32N 24°25' E 118°17'0 0.0
2015-Jul-01 23:32N 24°25' E 118°17'0 0.0
2015-Jul-01 22:33N 24°25' E 118°17'0 0.0
2015-Jul-01 21:33N 24°25' E 118°17'0 0.0
2015-Jul-01 20:33N 24°25' E 118°17'0 0.0
2015-Jul-01 19:33N 24°25' E 118°17'0 0.0
2015-Jul-01 18:33N 24°25' E 118°17'0 0.0
2015-Jul-01 16:26N 24°25' E 118°17'0 0.0
2015-Jul-01 15:25N 24°25' E 118°17'0 0.0
2015-Jul-01 14:26N 24°25' E 118°17'1 0.1
2015-Jul-01 10:33N 24°26' E 118°17'8 8.2
2015-Jul-01 09:32N 24°32' E 118°11'9 9.0
2015-Jul-01 08:32N 24°25' E 118°17'0 0.1
2015-Jul-01 07:27N 24°25' E 118°17'0 0.0
2015-Jul-01 06:32N 24°25' E 118°17'0 0.0
2015-Jul-01 05:33N 24°25' E 118°17'0 0.0
2015-Jul-01 04:32N 24°25' E 118°17'8 7.7
2015-Jul-01 03:33N 24°31' E 118°13'1 0.7
2015-Jul-01 02:33N 24°31' E 118°13'7 6.8
2015-Jul-01 01:32N 24°25' E 118°17'0 0.1
2015-Jul-01 00:29N 24°25' E 118°17'0 0.0
2015-Jun-30 23:32N 24°25' E 118°17'0 0.0
2015-Jun-30 22:30N 24°25' E 118°17'0 0.0
2015-Jun-30 21:33N 24°25' E 118°17'0 0.0
2015-Jun-30 20:33N 24°25' E 118°17'0 0.0
2015-Jun-30 19:33N 24°25' E 118°17'0 0.0
2015-Jun-30 18:33N 24°25' E 118°17'0 0.0
2015-Jun-30 17:32N 24°25' E 118°17'0 0.0
2015-Jun-30 16:32N 24°25' E 118°17'0 0.0
2015-Jun-30 15:33N 24°25' E 118°17'0 0.0
2015-Jun-30 14:33N 24°25' E 118°17'0 0.0
2015-Jun-30 10:32N 24°25' E 118°17'0 0.0
2015-Jun-30 09:33N 24°25' E 118°17'9 9.0
2015-Jun-30 08:33N 24°32' E 118°11'9 8.8
2015-Jun-30 07:33N 24°25' E 118°17'0 0.2
2015-Jun-30 06:33N 24°25' E 118°17'0 0.4
2015-Jun-30 05:29N 24°25' E 118°17'0 0.0
2015-Jun-30 04:33N 24°25' E 118°17'0 0.0
2015-Jun-30 03:29N 24°25' E 118°17'1 0.9
2015-Jun-30 02:31N 24°26' E 118°17'7 7.3
2015-Jun-30 01:33N 24°32' E 118°12'8 8.2
2015-Jun-30 00:33N 24°25' E 118°17'0 0.0
2015-Jun-29 23:31N 24°25' E 118°17'0 0.0
2015-Jun-29 22:30N 24°25' E 118°17'0 0.0
2015-Jun-29 21:30N 24°25' E 118°17'0 0.0
2015-Jun-29 20:32N 24°25' E 118°17'0 0.0
2015-Jun-29 19:27N 24°25' E 118°17'0 0.0
2015-Jun-29 18:21N 24°25' E 118°17'0 0.0
2015-Jun-29 17:29N 24°25' E 118°17'0 0.0
2015-Jun-29 16:33N 24°25' E 118°17'0 0.0
2015-Jun-29 15:33N 24°25' E 118°17'0 0.0
2015-Jun-29 14:31N 24°25' E 118°17'2 0.4
2015-Jun-29 10:32N 24°27' E 118°17'8 7.7
2015-Jun-29 09:32N 24°32' E 118°11'9 8.2
2015-Jun-29 08:26N 24°25' E 118°17'0 0.5
2015-Jun-29 07:33N 24°25' E 118°17'0 0.0
2015-Jun-29 06:27N 24°25' E 118°17'9 9.7
2015-Jun-29 05:33N 24°32' E 118°11'3 2.5
2015-Jun-29 04:32N 24°31' E 118°14'7 6.8
2015-Jun-29 03:33N 24°25' E 118°17'0 0.0
2015-Jun-29 02:33N 24°25' E 118°17'0 0.5
2015-Jun-29 01:33N 24°25' E 118°17'0 0.0
2015-Jun-29 00:32N 24°25' E 118°17'0 0.0
2015-Jun-28 23:25N 24°25' E 118°17'0 0.0
2015-Jun-28 21:12N 24°25' E 118°17'0 0.0
2015-Jun-28 20:31N 24°25' E 118°17'0 0.0
2015-Jun-28 19:27N 24°25' E 118°17'0 0.0
2015-Jun-28 16:14N 24°25' E 118°17'0 0.0
2015-Jun-28 14:31N 24°25' E 118°17'0 0.0
2015-Jun-28 10:32N 24°25' E 118°17'0 0.0
2015-Jun-28 08:16N 24°25' E 118°17'810.8
2015-Jun-28 07:32N 24°32' E 118°12'1 0.8
2015-Jun-28 06:34N 24°31' E 118°13'7 7.2
2015-Jun-28 05:33N 24°25' E 118°17'0 0.0
2015-Jun-28 04:29N 24°25' E 118°17'0 0.0
2015-Jun-28 03:32N 24°25' E 118°17'0 0.4
2015-Jun-28 02:33N 24°26' E 118°17'7 7.5
2015-Jun-28 01:34N 24°32' E 118°12'8 8.2
2015-Jun-28 00:33N 24°25' E 118°17'0 0.0
2015-Jun-27 23:33N 24°25' E 118°17'0 0.0
2015-Jun-27 22:31N 24°25' E 118°17'0 0.0
2015-Jun-27 21:28N 24°25' E 118°17'0 0.0
2015-Jun-27 20:33N 24°25' E 118°17'0 0.0
2015-Jun-27 19:33N 24°25' E 118°17'0 0.0
2015-Jun-27 18:29N 24°25' E 118°17'0 0.0
2015-Jun-27 17:33N 24°25' E 118°17'0 0.0
2015-Jun-27 16:29N 24°25' E 118°17'0 0.0
2015-Jun-27 14:31N 24°25' E 118°17'0 0.0
2015-Jun-27 10:33N 24°25' E 118°17'9 8.8
2015-Jun-27 09:32N 24°32' E 118°11'9 8.6
2015-Jun-27 08:30N 24°25' E 118°17'0 0.1
2015-Jun-27 07:32N 24°25' E 118°17'9 9.2
2015-Jun-27 06:34N 24°32' E 118°11'2 1.6
2015-Jun-27 05:32N 24°31' E 118°13'8 7.6
2015-Jun-27 04:32N 24°25' E 118°17'0 0.0
2015-Jun-27 01:33N 24°25' E 118°17'9 8.3
2015-Jun-27 00:31N 24°32' E 118°12'9 8.8
2015-Jun-26 23:33N 24°25' E 118°17'0 0.0
2015-Jun-26 22:32N 24°25' E 118°17'0 0.0
2015-Jun-26 21:33N 24°25' E 118°17'0 0.0
2015-Jun-26 20:33N 24°25' E 118°17'0 0.0
2015-Jun-26 14:30N 24°25' E 118°17'8 1.8
2015-Jun-26 10:03N 24°32' E 118°12'812.3
2015-Jun-26 09:23N 24°25' E 118°17'0 0.2
2015-Jun-26 07:13N 24°25' E 118°17'810.9
2015-Jun-26 06:31N 24°32' E 118°13'1 0.7
2015-Jun-26 05:32N 24°31' E 118°13'7 7.2
2015-Jun-26 04:32N 24°25' E 118°17'8 8.4
2015-Jun-26 03:33N 24°32' E 118°12'2 1.7
2015-Jun-26 02:33N 24°31' E 118°14'7 6.8
2015-Jun-26 01:33N 24°25' E 118°17'0 0.1
2015-Jun-26 00:32N 24°25' E 118°17'0 0.0
2015-Jun-25 23:33N 24°25' E 118°17'0 0.0
2015-Jun-25 22:33N 24°25' E 118°17'0 0.0
2015-Jun-25 21:33N 24°25' E 118°17'0 0.0
2015-Jun-25 20:33N 24°25' E 118°17'0 0.0
2015-Jun-25 19:33N 24°25' E 118°17'0 0.0
2015-Jun-25 18:19N 24°25' E 118°17'0 0.0
2015-Jun-25 17:19N 24°25' E 118°17'0 0.0
2015-Jun-25 10:33N 24°25' E 118°17'1 1.3
2015-Jun-25 09:29N 24°26' E 118°17'8 8.5
2015-Jun-25 08:33N 24°32' E 118°11'9 8.6
2015-Jun-25 07:30N 24°25' E 118°17'0 0.3
2015-Jun-25 06:17N 24°25' E 118°17'7 9.5
2015-Jun-25 05:33N 24°31' E 118°13'0 0.1
2015-Jun-25 04:33N 24°31' E 118°13'7 7.4
2015-Jun-25 03:33N 24°25' E 118°17'  

Dump ship's entire track history